VE-0193 weather

Unigas I Heliport
Zulia, Venezuela

Public forecast

Using degrees Celsius for public forecast. Weather courtesy of forecast.io.

METAR (pilot weather report)

Report is more than 6 hours old.

Closest report is Mene Grande Airport, 18.4 nm (34.2 km) E. Retrieved 2018/11/14 15:00 UTC (5 months ago):

SVMN 141500Z /////KT 9999 BKN017 30/26 Q1014

TAF (pilot weather forecast)

Closest forecast is La Chinita International Airport, 56.8 nm (105.2 km) NNW. Retrieved 2019/04/25 06:05 UTC (5 hours ago):

TAF SVMC 250400Z 2506/2606 21011KT 9999 SCT020 TX32/1900Z TN24/0900Z BECMG 2506/2510 21005KT 9999 BKN016